Time;durP1;ratioP1;P1;durP2;ratioP2;P2;SDS_P1;SDS_P2;PMS_P1;PMS_P2;Temp;Humidity;BMP_temperature;BMP_pressure;BME280_temperature;BME280_humidity;BME280_pressure;Samples;Min_cycle;Max_cycle;Signal;HPM_P1;HPM_P2
2023/10/24 00:01:34;;;;;;;22.63;6.78;;;;;;;19.49;57.41;99722.41;4973638;28;20022;-26
2023/10/24 00:03:59;;;;;;;26.08;7.85;;;;;;;19.54;58.50;99727.03;4973381;28;20058;-26
2023/10/24 00:06:24;;;;;;;24.45;7.18;;;;;;;19.54;58.13;99724.34;4973508;28;20023;-26
2023/10/24 00:08:50;;;;;;;25.52;7.28;;;;;;;19.56;57.59;99705.19;4973476;28;20031;-26
2023/10/24 00:11:15;;;;;;;28.85;7.78;;;;;;;19.60;57.95;99711.69;4973297;28;20031;-26
2023/10/24 00:13:41;;;;;;;23.98;7.00;;;;;;;19.57;57.40;99699.50;4973568;28;20019;-26
2023/10/24 00:16:06;;;;;;;24.58;7.20;;;;;;;19.66;57.51;99707.91;4973253;28;20026;-25
2023/10/24 00:18:32;;;;;;;23.13;6.45;;;;;;;19.63;57.29;99703.03;4973447;28;20035;-26
2023/10/24 00:20:58;;;;;;;16.42;7.03;;;;;;;19.64;57.36;99710.88;4973173;28;20031;-26
2023/10/24 00:23:24;;;;;;;23.13;6.93;;;;;;;19.75;56.85;99703.66;4973122;28;20065;-25
2023/10/24 00:25:49;;;;;;;26.38;6.78;;;;;;;19.88;56.54;99697.75;4973055;28;20026;-26
2023/10/24 00:28:14;;;;;;;22.77;6.95;;;;;;;19.83;56.33;99702.34;4973099;28;20556;-26
2023/10/24 00:30:40;;;;;;;23.65;7.45;;;;;;;19.75;56.96;99700.97;4973199;28;20026;-26
2023/10/24 00:33:05;;;;;;;25.42;7.28;;;;;;;19.93;56.86;99705.06;4973168;28;20058;-25
2023/10/24 00:35:32;;;;;;;25.42;7.20;;;;;;;19.87;57.01;99706.13;4973075;28;20085;-25
2023/10/24 00:37:58;;;;;;;20.83;7.93;;;;;;;19.80;56.71;99711.78;4972798;28;20085;-25
2023/10/24 00:40:23;;;;;;;20.80;7.55;;;;;;;19.69;57.39;99696.59;4972812;28;20030;-25
2023/10/24 00:42:50;;;;;;;28.42;8.13;;;;;;;19.66;57.44;99706.03;4971798;28;20027;-25
2023/10/24 00:45:16;;;;;;;20.95;8.18;;;;;;;19.59;57.52;99699.25;4972795;28;20137;-25
2023/10/24 00:47:42;;;;;;;25.30;8.48;;;;;;;19.51;57.67;99704.09;4972851;28;20410;-25
2023/10/24 00:50:08;;;;;;;22.98;7.47;;;;;;;19.39;58.35;99698.09;4972665;28;20030;-25
2023/10/24 00:52:35;;;;;;;25.73;7.70;;;;;;;19.37;58.50;99705.63;4972547;28;20031;-25
2023/10/24 00:55:02;;;;;;;27.40;8.23;;;;;;;19.38;58.21;99699.19;4972487;28;20033;-25
2023/10/24 00:57:28;;;;;;;28.17;8.20;;;;;;;19.41;58.24;99701.34;4972376;28;20388;-25
2023/10/24 00:59:54;;;;;;;23.70;7.45;;;;;;;19.23;58.55;99701.78;4972651;28;20034;-25
2023/10/24 01:02:19;;;;;;;25.25;7.28;;;;;;;19.01;59.24;99699.25;4972221;28;20161;-25
2023/10/24 01:04:45;;;;;;;21.90;7.22;;;;;;;18.99;59.57;99696.00;4972155;28;20129;-25
2023/10/24 01:07:11;;;;;;;21.27;7.32;;;;;;;19.07;59.34;99701.69;4972423;28;20033;-25
2023/10/24 01:09:36;;;;;;;29.17;7.57;;;;;;;19.06;59.26;99694.69;4972288;28;20043;-25
2023/10/24 01:12:02;;;;;;;21.77;6.80;;;;;;;19.16;59.03;99693.94;4972351;28;20427;-25
2023/10/24 01:14:28;;;;;;;23.42;7.85;;;;;;;19.08;59.12;99680.94;4972393;28;20090;-25
2023/10/24 01:16:53;;;;;;;20.25;7.90;;;;;;;19.08;59.08;99691.75;4972226;28;20030;-25
2023/10/24 01:19:19;;;;;;;31.33;7.80;;;;;;;19.05;59.07;99694.94;4972078;28;20482;-25
2023/10/24 01:21:45;;;;;;;24.27;8.23;;;;;;;19.00;59.06;99689.50;4983820;28;20022;-25
2023/10/24 01:24:16;;;;;;;27.73;8.13;;;;;;;18.81;59.79;99702.59;4984115;28;20030;-25
2023/10/24 01:26:43;;;;;;;33.05;7.90;;;;;;;18.85;59.45;99693.75;4991449;28;20109;-25
2023/10/24 01:29:10;;;;;;;25.92;7.93;;;;;;;18.84;59.40;99705.59;4978930;28;20022;-25
2023/10/24 01:31:36;;;;;;;25.55;7.93;;;;;;;18.83;59.50;99705.84;4991713;28;20030;-25
2023/10/24 01:34:01;;;;;;;26.70;8.30;;;;;;;18.66;59.80;99690.63;4991410;28;20026;-25
2023/10/24 01:36:27;;;;;;;25.40;8.27;;;;;;;18.72;59.41;99699.56;4991436;28;20053;-25
2023/10/24 01:38:52;;;;;;;25.73;8.48;;;;;;;18.58;59.37;99704.53;4991319;28;20121;-25
2023/10/24 01:41:17;;;;;;;24.92;8.45;;;;;;;18.63;58.99;99701.91;4991348;28;20133;-25
2023/10/24 01:43:43;;;;;;;31.35;8.52;;;;;;;18.58;59.30;99692.97;4991129;28;20100;-25
2023/10/24 01:46:08;;;;;;;29.90;8.00;;;;;;;18.58;59.82;99699.16;4991213;28;20030;-25
2023/10/24 01:48:33;;;;;;;23.45;7.45;;;;;;;18.59;59.82;99690.00;4991329;28;20053;-25
2023/10/24 01:50:59;;;;;;;23.50;7.75;;;;;;;18.54;60.22;99698.03;4991122;28;20488;-25
2023/10/24 01:53:24;;;;;;;25.65;8.20;;;;;;;18.55;60.44;99686.22;4991198;28;20030;-25
2023/10/24 01:55:50;;;;;;;20.90;7.72;;;;;;;18.40;61.09;99691.47;4991207;28;20521;-24
2023/10/24 01:58:15;;;;;;;23.30;8.23;;;;;;;18.51;60.32;99694.00;4989773;28;20066;-25
2023/10/24 02:00:40;;;;;;;32.47;8.50;;;;;;;18.60;59.89;99694.34;4991150;28;20065;-25
2023/10/24 02:03:06;;;;;;;30.45;8.50;;;;;;;18.53;60.30;99697.25;4991268;28;20088;-26
2023/10/24 02:05:31;;;;;;;23.95;7.97;;;;;;;18.62;59.77;99689.50;4990518;28;20130;-25
2023/10/24 02:07:57;;;;;;;28.77;8.98;;;;;;;18.65;59.68;99698.94;4990828;28;20026;-25
2023/10/24 02:10:22;;;;;;;24.15;8.23;;;;;;;18.74;59.72;99700.09;4990856;28;20034;-25
2023/10/24 02:12:47;;;;;;;27.95;7.97;;;;;;;18.80;59.33;99696.41;4990997;28;20034;-25
2023/10/24 02:15:13;;;;;;;20.83;8.20;;;;;;;18.78;59.52;99692.31;4990813;28;20106;-25
2023/10/24 02:17:41;;;;;;;31.70;10.05;;;;;;;18.62;59.71;99688.69;4991286;28;20088;-25
2023/10/24 02:20:10;;;;;;;66.55;27.63;;;;;;;18.49;60.52;99689.94;4990674;28;20034;-25
2023/10/24 02:22:35;;;;;;;50.47;21.08;;;;;;;18.28;61.34;99692.44;4990743;28;20065;-25
2023/10/24 02:25:01;;;;;;;41.70;17.05;;;;;;;18.49;60.66;99701.53;4990447;28;20034;-25
2023/10/24 02:27:27;;;;;;;38.58;14.27;;;;;;;18.50;60.74;99699.63;4990805;28;20027;-25
2023/10/24 02:29:52;;;;;;;39.45;13.60;;;;;;;18.48;61.03;99701.78;4990673;28;20038;-25
2023/10/24 02:32:18;;;;;;;31.65;13.27;;;;;;;18.36;61.49;99708.13;4990621;28;20057;-25
2023/10/24 02:34:48;;;;;;;38.45;13.05;;;;;;;18.36;61.51;99700.06;4990577;28;20103;-26
2023/10/24 02:37:13;;;;;;;26.33;10.65;;;;;;;18.33;61.59;99714.06;4990639;28;20066;-25
2023/10/24 02:39:39;;;;;;;25.05;10.23;;;;;;;18.29;61.47;99709.41;4990766;28;20019;-25
2023/10/24 02:42:04;;;;;;;23.17;9.80;;;;;;;18.24;62.12;99715.59;4990960;28;20439;-25
2023/10/24 02:44:30;;;;;;;26.98;9.60;;;;;;;18.30;62.03;99714.56;4990364;28;20040;-25
2023/10/24 02:46:55;;;;;;;19.73;8.93;;;;;;;18.27;61.69;99719.63;4990411;28;20026;-25
2023/10/24 02:49:20;;;;;;;22.85;8.85;;;;;;;18.39;61.36;99725.69;4990353;28;20541;-25
2023/10/24 02:51:46;;;;;;;27.20;8.85;;;;;;;18.43;61.14;99717.88;4990414;28;20030;-25
2023/10/24 02:54:11;;;;;;;26.35;9.30;;;;;;;18.25;61.66;99727.16;4990597;28;20471;-25
2023/10/24 02:56:36;;;;;;;26.90;8.73;;;;;;;18.34;61.37;99725.63;4990335;28;20062;-25
2023/10/24 02:59:02;;;;;;;24.00;9.10;;;;;;;18.27;61.72;99725.03;4990487;28;20038;-26
2023/10/24 03:01:27;;;;;;;26.63;9.05;;;;;;;18.29;61.56;99723.69;4990593;28;20026;-25
2023/10/24 03:03:53;;;;;;;27.38;8.60;;;;;;;18.27;61.90;99725.03;4993419;28;20078;-25
2023/10/24 03:06:19;;;;;;;28.27;8.82;;;;;;;18.21;62.13;99726.84;4994061;28;20022;-25
2023/10/24 03:08:45;;;;;;;31.77;9.27;;;;;;;18.28;61.91;99716.69;4990532;28;20034;-25
2023/10/24 03:11:10;;;;;;;28.27;8.82;;;;;;;18.30;61.95;99721.84;4994091;28;20030;-25
2023/10/24 03:13:36;;;;;;;28.50;8.93;;;;;;;18.36;61.68;99718.91;4994182;28;20458;-26
2023/10/24 03:16:05;;;;;;;21.92;8.25;;;;;;;18.23;61.79;99713.13;4993915;28;20034;-25
2023/10/24 03:18:31;;;;;;;;;;;;;;;18.19;62.23;99712.84;4994380;28;20395;-25
2023/10/24 03:20:57;;;;;;;28.92;8.73;;;;;;;18.16;62.16;99713.31;4990852;28;19964;-25
2023/10/24 03:23:22;;;;;;;26.25;8.63;;;;;;;18.22;61.89;99714.19;4993828;28;20101;-26
2023/10/24 03:25:48;;;;;;;21.42;9.00;;;;;;;18.16;62.10;99713.31;4979606;28;20114;-26
2023/10/24 03:28:14;;;;;;;21.52;8.27;;;;;;;18.12;61.83;99709.53;4976727;28;20504;-26
2023/10/24 03:30:40;;;;;;;23.35;8.18;;;;;;;18.19;61.89;99715.53;4974386;28;20467;-25
2023/10/24 03:33:05;;;;;;;22.92;7.68;;;;;;;18.06;61.56;99707.84;4974193;28;20338;-25
2023/10/24 03:35:32;;;;;;;21.48;7.40;;;;;;;18.25;61.33;99716.38;4974238;28;20022;-25
2023/10/24 03:37:58;;;;;;;17.20;7.47;;;;;;;18.35;60.88;99721.84;4980188;28;20057;-25
2023/10/24 03:40:26;;;;;;;22.77;6.95;;;;;;;18.38;60.57;99729.44;5008316;28;20062;-26
2023/10/24 03:42:53;;;;;;;28.07;8.17;;;;;;;18.33;60.88;99726.69;4993581;28;20034;-25
2023/10/24 03:45:18;;;;;;;24.30;8.32;;;;;;;18.33;61.29;99735.59;4993327;28;20054;-25
2023/10/24 03:47:44;;;;;;;21.42;8.70;;;;;;;18.27;61.54;99731.22;4993035;28;20054;-25
2023/10/24 03:50:09;;;;;;;24.65;7.82;;;;;;;18.25;61.46;99737.94;4993151;28;20109;-26
2023/10/24 03:52:34;;;;;;;24.23;8.27;;;;;;;18.25;61.23;99735.25;4993267;28;20121;-25
2023/10/24 03:55:00;;;;;;;19.58;7.63;;;;;;;18.20;61.21;99729.78;4993215;28;20425;-25
2023/10/24 03:57:25;;;;;;;20.05;7.82;;;;;;;18.14;61.48;99734.31;4993563;28;20096;-25
2023/10/24 03:59:51;;;;;;;23.75;8.00;;;;;;;18.15;61.56;99730.56;4993473;28;20489;-25
2023/10/24 04:02:16;;;;;;;22.83;8.07;;;;;;;18.20;61.38;99727.94;4993578;28;20452;-26
2023/10/24 04:04:41;;;;;;;24.55;8.25;;;;;;;18.02;61.93;99730.97;4993103;28;20046;-26
2023/10/24 04:07:07;;;;;;;26.70;8.45;;;;;;;18.06;61.81;99724.81;4993532;28;20038;-26
2023/10/24 04:09:32;;;;;;;21.50;8.32;;;;;;;18.03;61.75;99724.50;4993422;28;20041;-25
2023/10/24 04:11:58;;;;;;;32.08;9.15;;;;;;;18.09;61.69;99728.91;4993267;28;20476;-27
2023/10/24 04:14:23;;;;;;;22.35;8.25;;;;;;;18.08;61.67;99724.56;4992685;28;20548;-28
2023/10/24 04:16:50;;;;;;;25.20;8.40;;;;;;;18.02;61.94;99733.66;4992953;28;20026;-26
2023/10/24 04:19:16;;;;;;;27.42;9.40;;;;;;;17.95;61.90;99734.69;4978580;28;20043;-26
2023/10/24 04:21:41;;;;;;;23.33;8.98;;;;;;;17.90;62.10;99737.31;4974001;28;20027;-26
2023/10/24 04:24:07;;;;;;;32.35;8.82;;;;;;;17.98;62.51;99744.13;4973854;28;20027;-26
2023/10/24 04:26:34;;;;;;;21.40;8.10;;;;;;;17.90;62.41;99744.56;4973648;28;20110;-27
2023/10/24 04:29:00;;;;;;;29.58;9.10;;;;;;;17.87;62.43;99735.09;4973678;28;20034;-27
2023/10/24 04:31:25;;;;;;;28.33;8.80;;;;;;;17.91;62.61;99736.22;4989600;28;20037;-27
2023/10/24 04:33:50;;;;;;;28.38;8.80;;;;;;;18.01;62.70;99749.00;5001261;28;20271;-26
2023/10/24 04:36:16;;;;;;;26.73;7.90;;;;;;;17.90;62.64;99733.81;5006916;28;20205;-26
2023/10/24 04:38:42;;;;;;;28.48;8.18;;;;;;;18.00;61.94;99749.25;5012237;28;20072;-26
2023/10/24 04:41:07;;;;;;;20.52;8.45;;;;;;;18.04;62.45;99753.06;5012637;28;20021;-27
2023/10/24 04:43:33;;;;;;;21.67;7.93;;;;;;;18.02;62.07;99755.19;5012696;28;20036;-27
2023/10/24 04:45:59;;;;;;;24.02;7.80;;;;;;;17.94;61.68;99761.84;5012849;28;20029;-27
2023/10/24 04:48:25;;;;;;;23.95;8.23;;;;;;;17.94;61.47;99765.34;5012591;28;20474;-26
2023/10/24 04:50:50;;;;;;;20.13;7.82;;;;;;;17.98;60.97;99774.53;5013148;28;20025;-26
2023/10/24 04:53:15;;;;;;;19.80;8.27;;;;;;;17.98;61.40;99771.84;5012739;28;20044;-27
2023/10/24 04:55:42;;;;;;;24.17;8.20;;;;;;;17.85;62.27;99783.00;5012011;28;20045;-26
2023/10/24 04:58:07;;;;;;;30.83;8.57;;;;;;;17.81;62.49;99781.84;4994350;28;20030;-26
2023/10/24 05:00:33;;;;;;;24.73;8.10;;;;;;;18.00;61.36;99778.88;5008058;28;20493;-26
2023/10/24 05:02:58;;;;;;;24.92;12.27;;;;;;;18.33;71.30;99800.25;4997957;28;20018;-26
2023/10/24 05:05:24;;;;;;;21.70;8.35;;;;;;;18.67;64.76;99791.94;5000593;28;20034;-26
2023/10/24 05:07:49;;;;;;;25.58;8.23;;;;;;;18.84;61.63;99802.63;5005769;28;20110;-26
2023/10/24 05:10:15;;;;;;;28.65;8.98;;;;;;;18.92;60.37;99804.88;4981583;28;20035;-26
2023/10/24 05:12:40;;;;;;;25.25;8.48;;;;;;;18.97;59.58;99803.28;4983061;28;20035;-26
2023/10/24 05:15:07;;;;;;;70.45;35.50;;;;;;;19.40;71.45;99823.84;4980591;28;20030;-27
2023/10/24 05:17:33;;;;;;;28.52;11.77;;;;;;;19.91;63.55;99801.72;4983066;28;20026;-27
2023/10/24 05:20:02;;;;;;;29.63;10.63;;;;;;;20.07;58.96;99814.22;4979687;28;20030;-27
2023/10/24 05:22:28;;;;;;;34.03;9.63;;;;;;;20.03;56.77;99823.94;4985504;28;20034;-27
2023/10/24 05:24:54;;;;;;;30.25;9.02;;;;;;;19.92;56.55;99833.88;4980945;28;20022;-26
2023/10/24 05:27:19;;;;;;;29.45;9.35;;;;;;;19.90;56.64;99830.63;4977143;28;20049;-27
2023/10/24 05:29:45;;;;;;;25.67;8.98;;;;;;;19.98;56.79;99823.91;4985372;28;20026;-26
2023/10/24 05:32:10;;;;;;;30.88;9.18;;;;;;;20.05;56.34;99839.88;4978103;28;20086;-27
2023/10/24 05:34:36;;;;;;;23.73;9.10;;;;;;;20.24;55.87;99841.03;4990778;28;20045;-26
2023/10/24 05:37:01;;;;;;;27.95;9.95;;;;;;;20.28;55.75;99847.53;4992530;28;20022;-27
2023/10/24 05:39:28;;;;;;;27.90;9.32;;;;;;;20.34;55.80;99847.56;4986781;28;20026;-27
2023/10/24 05:41:54;;;;;;;27.42;10.65;;;;;;;20.44;56.52;99855.69;4994455;28;20025;-27
2023/10/24 05:44:19;;;;;;;31.30;10.75;;;;;;;20.68;55.24;99861.47;4997656;28;20426;-26
2023/10/24 05:46:45;;;;;;;25.55;9.35;;;;;;;20.84;54.21;99862.28;4974961;28;20047;-26
2023/10/24 05:49:10;;;;;;;21.70;8.10;;;;;;;21.03;53.19;99866.06;4988684;28;20091;-27
2023/10/24 05:51:35;;;;;;;23.00;7.55;;;;;;;21.32;52.90;99870.16;4991535;28;20056;-27
2023/10/24 05:54:01;;;;;;;22.80;8.02;;;;;;;21.58;52.24;99863.66;4991249;28;20033;-26
2023/10/24 05:56:26;;;;;;;27.35;7.47;;;;;;;21.88;50.96;99850.31;4990942;28;20418;-27
2023/10/24 05:58:52;;;;;;;28.08;7.50;;;;;;;22.15;50.79;99867.00;4984904;28;20080;-28
2023/10/24 06:01:18;;;;;;;22.48;7.38;;;;;;;22.53;49.71;99861.97;4989098;28;20026;-26
2023/10/24 06:03:44;;;;;;;20.90;7.47;;;;;;;22.82;48.55;99858.53;4990734;28;20058;-27
2023/10/24 06:06:10;;;;;;;30.67;13.15;;;;;;;22.95;48.26;99867.94;4973164;28;20054;-27
2023/10/24 06:08:35;;;;;;;91.80;56.17;;;;;;;23.20;47.23;99872.41;4971657;28;20106;-27
2023/10/24 06:11:03;;;;;;;26.90;9.25;;;;;;;23.46;46.98;99869.47;4971194;28;20027;-28
2023/10/24 06:13:28;;;;;;;23.10;7.43;;;;;;;23.75;46.08;99880.31;4971396;28;20105;-26
2023/10/24 06:15:54;;;;;;;27.20;7.47;;;;;;;23.91;45.06;99875.53;4971268;28;20457;-27
2023/10/24 06:18:20;;;;;;;22.25;6.70;;;;;;;24.11;44.32;99877.22;4971432;28;20022;-27
2023/10/24 06:20:49;;;;;;;16.40;5.75;;;;;;;24.30;44.14;99877.25;4971344;28;20118;-27
2023/10/24 06:23:14;;;;;;;19.63;6.77;;;;;;;24.66;43.37;99879.53;4971249;28;20038;-26
2023/10/24 06:25:41;;;;;;;24.88;6.03;;;;;;;25.07;42.14;99882.41;4971172;28;20499;-28
2023/10/24 06:28:07;;;;;;;19.52;6.15;;;;;;;25.33;41.30;99882.03;4971163;28;20113;-27
2023/10/24 06:30:34;;;;;;;23.05;6.20;;;;;;;25.72;40.25;99878.91;4970810;28;20026;-26
2023/10/24 06:32:59;;;;;;;16.65;5.53;;;;;;;25.46;40.83;99880.47;4971128;28;20034;-29
2023/10/24 06:35:24;;;;;;;20.73;5.78;;;;;;;25.93;40.26;99876.63;4971008;28;20021;-27
2023/10/24 06:37:50;;;;;;;18.73;5.57;;;;;;;26.07;39.91;99873.88;4980188;28;20026;-28
2023/10/24 06:40:16;;;;;;;21.17;5.50;;;;;;;26.13;39.73;99874.59;4999474;28;20125;-28
2023/10/24 06:42:41;;;;;;;24.92;7.75;;;;;;;26.07;39.44;99873.09;5013197;28;20489;-27
2023/10/24 06:45:07;;;;;;;23.00;10.15;;;;;;;26.50;38.75;99869.97;5012449;28;20017;-27
2023/10/24 06:47:33;;;;;;;24.63;10.05;;;;;;;26.60;38.02;99860.78;4994682;28;20096;-27
2023/10/24 06:49:58;;;;;;;18.67;6.40;;;;;;;26.91;37.79;99869.06;4994651;28;20026;-27
2023/10/24 06:52:24;;;;;;;21.23;5.50;;;;;;;27.26;36.88;99867.44;5009279;28;20034;-27
2023/10/24 06:54:49;;;;;;;20.20;4.95;;;;;;;27.56;36.18;99862.28;4994290;28;20026;-27
2023/10/24 06:57:15;;;;;;;22.58;5.63;;;;;;;27.89;35.78;99859.22;4994184;28;20036;-27
2023/10/24 06:59:40;;;;;;;16.60;5.30;;;;;;;28.05;35.39;99862.34;4994624;28;20034;-28
2023/10/24 07:02:05;;;;;;;25.52;5.57;;;;;;;28.25;35.18;99855.44;4994399;28;20029;-29
2023/10/24 07:04:31;;;;;;;19.35;5.30;;;;;;;28.44;34.74;99853.25;4994266;28;20054;-27
2023/10/24 07:06:56;;;;;;;17.20;4.95;;;;;;;28.76;34.17;99848.44;4994704;28;20117;-26
2023/10/24 07:09:22;;;;;;;18.00;5.15;;;;;;;29.00;33.74;99860.84;4994462;28;20126;-28
2023/10/24 07:11:47;;;;;;;19.23;5.55;;;;;;;29.27;33.35;99850.66;4994478;28;20042;-27
2023/10/24 07:14:12;;;;;;;22.73;5.93;;;;;;;29.56;32.80;99845.22;4994448;28;20030;-27
2023/10/24 07:16:38;;;;;;;16.58;5.85;;;;;;;29.79;32.47;99845.81;4994447;28;20026;-27
2023/10/24 07:19:03;;;;;;;20.42;5.40;;;;;;;30.01;32.35;99839.25;4994405;28;20500;-28
2023/10/24 07:21:29;;;;;;;22.48;5.05;;;;;;;30.15;31.62;99844.47;4994457;28;20200;-28
2023/10/24 07:23:56;;;;;;;13.75;4.97;;;;;;;29.93;32.07;99845.59;4994169;28;20153;-27
2023/10/24 07:26:22;;;;;;;18.63;4.95;;;;;;;29.94;32.22;99840.91;4993985;28;20417;-29
2023/10/24 07:28:47;;;;;;;17.02;5.30;;;;;;;30.20;32.06;99833.31;4994204;28;20030;-27
2023/10/24 07:31:13;;;;;;;17.77;5.60;;;;;;;30.24;31.56;99832.66;4994021;28;20034;-27
2023/10/24 07:33:38;;;;;;;18.50;5.20;;;;;;;30.40;31.41;99820.75;4994021;28;20103;-28
2023/10/24 07:36:06;;;;;;;25.00;5.50;;;;;;;30.47;31.39;99835.91;4994000;28;20026;-27
2023/10/24 07:38:32;;;;;;;17.23;5.33;;;;;;;30.77;30.86;99836.63;4993620;28;20026;-26
2023/10/24 07:40:57;;;;;;;22.25;5.80;;;;;;;30.87;30.50;99829.91;4993652;28;20030;-28
2023/10/24 07:43:23;;;;;;;16.33;5.30;;;;;;;30.63;30.95;99827.88;4993375;28;20034;-30
2023/10/24 07:45:50;;;;;;;17.65;5.05;;;;;;;30.78;30.83;99828.03;4993470;28;20023;-27
2023/10/24 07:48:15;;;;;;;18.60;5.28;;;;;;;30.92;30.58;99810.50;4992750;28;20418;-26
2023/10/24 07:50:51;;;;;;;15.55;5.30;;;;;;;30.86;30.87;99811.81;4993753;28;20034;-28
2023/10/24 07:53:18;;;;;;;17.05;4.88;;;;;;;31.23;30.39;99810.00;4993616;28;20034;-31
2023/10/24 07:55:44;;;;;;;17.88;4.90;;;;;;;31.07;30.50;99807.13;4993490;28;20022;-27
2023/10/24 07:58:09;;;;;;;21.27;5.88;;;;;;;30.98;30.56;99806.41;4993427;28;20311;-27
2023/10/24 08:00:34;;;;;;;19.60;4.95;;;;;;;31.21;30.29;99806.00;4993440;28;20342;-29
2023/10/24 08:03:00;;;;;;;17.05;5.38;;;;;;;31.35;30.19;99799.03;4993239;28;20034;-28
2023/10/24 08:05:26;;;;;;;22.33;8.32;;;;;;;31.63;29.84;99797.59;4993166;28;20050;-28
2023/10/24 08:07:51;;;;;;;25.50;6.30;;;;;;;31.83;29.68;99801.34;4993338;28;20109;-28
2023/10/24 08:10:17;;;;;;;19.63;5.53;;;;;;;31.99;29.31;99794.00;4993164;28;20468;-28
2023/10/24 08:12:42;;;;;;;14.65;5.30;;;;;;;32.14;29.41;99796.06;4992768;28;20029;-26
2023/10/24 08:15:08;;;;;;;16.08;5.15;;;;;;;32.36;28.98;99790.41;4992824;28;20030;-27
2023/10/24 08:17:34;;;;;;;21.83;5.13;;;;;;;32.34;28.76;99786.03;4993140;28;20106;-28
2023/10/24 08:19:59;;;;;;;17.48;5.03;;;;;;;32.53;28.08;99785.38;4993066;28;20105;-27
2023/10/24 08:22:24;;;;;;;17.23;5.80;;;;;;;31.96;28.90;99784.47;4993064;28;20030;-27
2023/10/24 08:24:50;;;;;;;19.17;5.47;;;;;;;32.08;28.65;99775.44;4992710;28;20062;-28
2023/10/24 08:27:15;;;;;;;17.38;4.90;;;;;;;32.67;28.27;99779.53;4992853;28;20038;-27
2023/10/24 08:29:40;;;;;;;19.00;5.22;;;;;;;32.84;28.78;99772.91;4993124;28;20030;-29
2023/10/24 08:32:07;;;;;;;15.35;5.07;;;;;;;32.85;28.07;99766.22;4992076;28;20112;-28
2023/10/24 08:34:36;;;;;;;21.65;5.38;;;;;;;32.85;28.59;99763.47;4989606;28;20026;-27
2023/10/24 08:37:02;;;;;;;22.48;5.57;;;;;;;33.09;28.10;99767.22;4985745;28;20038;-28
2023/10/24 08:39:27;;;;;;;16.42;4.90;;;;;;;33.28;27.23;99766.53;4980864;28;20030;-28
2023/10/24 08:41:56;;;;;;;16.80;5.25;;;;;;;33.16;27.19;99756.41;4985167;28;20083;-27
2023/10/24 08:44:23;;;;;;;18.33;4.82;;;;;;;32.63;27.85;99767.59;4980960;28;20027;-28
2023/10/24 08:46:49;;;;;;;14.07;4.57;;;;;;;32.93;27.97;99765.25;4983543;28;20022;-28
2023/10/24 08:49:17;;;;;;;20.63;5.18;;;;;;;32.43;28.47;99747.34;4983902;28;20066;-26
2023/10/24 08:51:44;;;;;;;22.43;4.77;;;;;;;32.90;27.59;99762.38;4993625;28;20411;-27
2023/10/24 08:54:09;;;;;;;13.35;5.00;;;;;;;33.05;27.24;99760.81;4986050;28;20670;-27
2023/10/24 08:56:37;;;;;;;17.80;5.13;;;;;;;33.14;27.40;99758.72;4985209;28;20041;-28
2023/10/24 08:59:08;;;;;;;15.63;4.67;;;;;;;33.25;27.75;99775.53;4982604;28;20030;-29
2023/10/24 09:01:35;;;;;;;21.30;5.03;;;;;;;33.53;27.22;99766.34;4985365;28;20705;-26
2023/10/24 09:04:02;;;;;;;17.27;5.28;;;;;;;33.43;27.30;99751.16;4990696;28;20506;-28
2023/10/24 09:06:28;;;;;;;14.35;4.60;;;;;;;33.80;26.40;99759.94;4981756;28;20490;-28
2023/10/24 09:08:54;;;;;;;16.67;4.55;;;;;;;33.28;26.85;99753.56;4985743;28;20104;-28
2023/10/24 09:11:19;;;;;;;18.77;4.40;;;;;;;33.47;26.47;99752.84;4988640;28;20034;-29
2023/10/24 09:13:45;;;;;;;16.75;4.57;;;;;;;33.57;26.53;99745.97;4981485;28;20030;-29
2023/10/24 09:16:11;;;;;;;16.73;4.78;;;;;;;33.41;26.48;99745.97;4984088;28;20079;-28
2023/10/24 09:18:39;;;;;;;15.35;4.28;;;;;;;32.99;26.85;99734.69;4984663;28;20023;-31
2023/10/24 09:21:07;;;;;;;15.52;4.60;;;;;;;33.35;26.31;99744.66;4974439;28;20462;-27
2023/10/24 09:23:34;;;;;;;15.63;4.75;;;;;;;33.04;26.28;99734.41;4989051;28;20409;-28
2023/10/24 09:26:07;;;;;;;19.10;4.80;;;;;;;32.76;26.75;99738.03;5007645;28;20470;-27
2023/10/24 09:28:33;;;;;;;16.17;4.72;;;;;;;32.21;27.58;99731.38;5011384;28;20133;-27
2023/10/24 09:31:00;;;;;;;20.35;4.72;;;;;;;32.80;27.34;99716.09;5012288;28;20405;-28
2023/10/24 09:33:28;;;;;;;16.20;4.30;;;;;;;33.16;26.98;99714.25;5010811;28;20492;-27
2023/10/24 09:35:54;;;;;;;19.25;4.90;;;;;;;33.39;26.39;99726.25;5012429;28;20065;-27
2023/10/24 09:38:22;;;;;;;17.50;5.13;;;;;;;33.49;26.42;99714.69;5010777;28;20092;-28
2023/10/24 09:40:48;;;;;;;19.08;6.18;;;;;;;33.80;25.62;99721.28;5010586;28;20026;-28
2023/10/24 09:43:24;;;;;;;16.33;5.00;;;;;;;33.93;25.41;99704.59;5010273;28;20099;-29
2023/10/24 09:45:53;;;;;;;17.33;4.88;;;;;;;33.83;25.67;99695.75;5010112;28;20076;-28
2023/10/24 09:48:19;;;;;;;18.02;4.80;;;;;;;33.45;26.40;99683.47;5010067;28;20061;-26
2023/10/24 09:50:47;;;;;;;18.77;4.63;;;;;;;33.64;26.66;99692.94;5011201;28;20405;-29
2023/10/24 09:53:12;;;;;;;16.45;4.82;;;;;;;33.57;25.95;99685.28;5010938;28;20130;-31
2023/10/24 09:55:40;;;;;;;17.20;5.30;;;;;;;33.75;26.08;99680.19;5011844;28;20560;-28
2023/10/24 09:58:08;;;;;;;17.50;5.47;;;;;;;33.81;25.75;99675.97;5011878;28;20029;-29
2023/10/24 10:00:33;;;;;;;13.50;4.70;;;;;;;33.55;25.77;99676.59;5011822;28;20064;-30
2023/10/24 10:02:59;;;;;;;16.92;4.78;;;;;;;33.15;26.14;99674.88;5011579;28;20030;-26
2023/10/24 10:05:28;;;;;;;19.88;4.70;;;;;;;32.81;26.90;99663.41;5011591;28;20053;-27
2023/10/24 10:07:56;;;;;;;16.95;5.00;;;;;;;32.82;26.80;99645.69;5011551;28;20053;-26
2023/10/24 10:10:23;;;;;;;24.47;4.77;;;;;;;32.62;27.46;99655.03;5012182;28;20072;-28
2023/10/24 10:12:59;;;;;;;22.25;4.97;;;;;;;32.86;26.38;99651.28;5011663;28;20182;-27
2023/10/24 10:16:02;;;;;;;22.10;5.53;;;;;;;32.21;27.27;99649.59;5011692;28;20029;-27
2023/10/24 10:19:06;;;;;;;16.00;4.57;;;;;;;32.47;26.68;99637.31;5011688;28;20037;-27
2023/10/24 10:21:51;;;;;;;18.40;8.60;;;;;;;32.83;26.78;99646.50;5000762;28;20044;-28
2023/10/24 10:24:25;;;;;;;18.15;7.07;;;;;;;33.20;26.59;99641.50;5011479;28;20526;-26
2023/10/24 10:27:13;;;;;;;20.63;5.18;;;;;;;33.61;25.96;99630.22;5011700;28;20597;-28
2023/10/24 10:30:02;;;;;;;16.88;4.97;;;;;;;34.04;25.57;99640.19;5011413;28;20524;-29
2023/10/24 10:32:58;;;;;;;18.33;4.57;;;;;;;34.17;25.97;99626.25;5011563;28;20030;-28
2023/10/24 10:35:48;;;;;;;14.15;4.03;;;;;;;34.41;24.91;99631.44;5011541;28;20018;-27
2023/10/24 10:38:23;;;;;;;;;;;;;;;34.87;24.73;99627.91;5011468;28;20135;-27
2023/10/24 10:40:48;;;;;;;14.93;4.20;;;;;;;34.69;24.56;99624.84;5011568;28;20344;-29
2023/10/24 10:43:29;;;;;;;20.48;5.10;;;;;;;34.76;24.51;99618.63;5011557;28;20038;-28
2023/10/24 10:46:15;;;;;;;14.63;4.60;;;;;;;33.65;24.64;99611.81;5011701;28;20030;-30
2023/10/24 10:48:41;;;;;;;23.00;4.50;;;;;;;33.41;25.20;99610.84;5011375;28;20045;-27
2023/10/24 10:51:07;;;;;;;16.15;4.57;;;;;;;33.35;25.02;99606.00;5010846;28;20386;-27
2023/10/24 10:53:43;;;;;;;13.30;4.22;;;;;;;33.23;25.56;99604.19;5011457;28;20074;-28
2023/10/24 10:56:30;;;;;;;14.30;4.25;;;;;;;32.85;25.73;99592.66;5011278;28;20063;-27
2023/10/24 10:59:08;;;;;;;11.07;4.18;;;;;;;32.92;26.00;99603.06;5011609;28;20053;-28
2023/10/24 11:01:52;;;;;;;17.77;4.63;;;;;;;32.70;26.58;99604.47;5010267;28;20022;-28
2023/10/24 11:04:18;;;;;;;12.48;4.55;;;;;;;32.94;26.30;99597.97;5011126;28;20038;-27
2023/10/24 11:06:54;;;;;;;16.70;4.07;;;;;;;32.77;25.32;99596.41;5011226;28;20018;-28
2023/10/24 11:09:21;;;;;;;34.30;23.17;;;;;;;33.01;25.65;99600.09;5011090;28;20504;-29
2023/10/24 11:11:47;;;;;;;15.52;4.80;;;;;;;32.84;25.25;99590.25;5011145;28;20022;-36
2023/10/24 11:14:16;;;;;;;13.18;3.90;;;;;;;32.55;25.61;99584.00;5011222;28;20414;-27
2023/10/24 11:16:43;;;;;;;13.93;3.78;;;;;;;32.73;25.43;99588.03;5011188;28;20449;-27
2023/10/24 11:19:18;;;;;;;16.77;4.13;;;;;;;32.65;25.81;99583.53;5010976;28;20152;-28
2023/10/24 11:21:45;;;;;;;17.38;4.05;;;;;;;33.06;25.66;99581.31;5010982;28;20048;-27
2023/10/24 11:24:14;;;;;;;11.85;3.90;;;;;;;33.37;25.92;99574.16;5012699;28;20108;-27